createdAt,value
2018-05-03T00:02:57.088Z,8.73
2018-05-03T00:07:30.294Z,9.57
2018-05-03T00:12:03.499Z,8.43
2018-05-03T00:16:36.669Z,9.13
2018-05-03T00:21:09.854Z,9.20
2018-05-03T00:25:43.043Z,10.10
2018-05-03T00:30:16.239Z,11.80
2018-05-03T00:34:49.428Z,8.83
2018-05-03T00:39:22.663Z,11.20
2018-05-03T00:43:55.837Z,11.37
2018-05-03T00:48:29.043Z,9.80
2018-05-03T00:53:02.232Z,9.63
2018-05-03T00:57:36.191Z,9.20
2018-05-03T01:02:09.395Z,8.17
2018-05-03T01:06:42.560Z,9.27
2018-05-03T01:11:16.519Z,9.43
2018-05-03T01:15:49.702Z,9.17
2018-05-03T01:20:23.654Z,7.63
2018-05-03T01:24:56.837Z,8.33
2018-05-03T01:29:30.815Z,8.27
2018-05-03T01:34:03.993Z,10.20
2018-05-03T01:38:37.182Z,8.53
2018-05-03T01:43:10.371Z,8.03
2018-05-03T01:47:44.322Z,7.07
2018-05-03T01:52:17.509Z,6.97
2018-05-03T01:56:51.451Z,6.60
2018-05-03T02:01:24.630Z,9.93
2018-05-03T02:05:58.580Z,7.10
2018-05-03T02:10:31.768Z,7.60
2018-05-03T02:15:05.730Z,6.90
2018-05-03T02:19:38.889Z,9.30
2018-05-03T02:24:12.842Z,9.27
2018-05-03T02:28:46.027Z,6.60
2018-05-03T02:33:19.970Z,7.07
2018-05-03T02:37:53.185Z,8.20
2018-05-03T02:42:26.380Z,8.57
2018-05-03T02:46:59.570Z,7.93
2018-05-03T02:51:33.503Z,8.17
2018-05-03T02:56:07.454Z,7.80
2018-05-03T03:00:58.220Z,7.70
2018-05-03T03:05:50.559Z,8.53
2018-05-03T03:10:42.119Z,10.47
2018-05-03T03:15:33.709Z,8.40
2018-05-03T03:25:45.242Z,7.27
2018-05-03T03:30:36.227Z,8.57
2018-05-03T03:40:38.747Z,9.20
2018-05-03T03:45:11.938Z,10.00
2018-05-03T03:49:45.122Z,9.03
2018-05-03T03:54:18.301Z,8.73
2018-05-03T03:58:51.482Z,8.23
2018-05-03T04:03:25.402Z,8.97
2018-05-03T04:07:59.359Z,7.80
2018-05-03T04:12:32.563Z,8.63
2018-05-03T04:17:05.758Z,8.33
2018-05-03T04:21:50.946Z,8.57
2018-05-03T04:26:24.134Z,8.00
2018-05-03T04:30:58.053Z,8.67
2018-05-03T04:35:32.018Z,9.63
2018-05-03T04:40:05.326Z,9.27
2018-05-03T04:44:38.512Z,9.50
2018-05-03T04:49:12.455Z,8.50
2018-05-03T04:53:45.772Z,8.97
2018-05-03T04:58:18.947Z,9.37
2018-05-03T05:02:52.890Z,8.93
2018-05-03T05:07:26.106Z,10.07
2018-05-03T05:11:59.273Z,9.83
2018-05-03T05:16:33.235Z,11.60
2018-05-03T05:21:06.418Z,9.47
2018-05-03T05:25:39.611Z,9.93
2018-05-03T05:30:13.533Z,9.30
2018-05-03T05:34:47.486Z,18.87
2018-05-03T05:44:00.251Z,16.73
2018-05-03T05:48:33.513Z,12.60
2018-05-03T05:53:06.697Z,11.87
2018-05-03T05:57:39.885Z,11.67
2018-05-03T06:02:13.060Z,15.17
2018-05-03T06:06:46.624Z,12.50
2018-05-03T06:11:19.821Z,12.87
2018-05-03T06:15:53.019Z,12.03
2018-05-03T06:20:26.211Z,11.30
2018-05-03T06:24:59.413Z,15.27
2018-05-03T06:29:32.589Z,14.67
2018-05-03T06:34:05.798Z,15.70
2018-05-03T06:38:39.774Z,14.20
2018-05-03T06:43:12.962Z,14.17
2018-05-03T06:47:46.201Z,13.13
2018-05-03T06:52:19.430Z,13.00
2018-05-03T06:56:52.607Z,13.10
2018-05-03T07:01:25.811Z,12.93
2018-05-03T07:05:58.983Z,12.03
2018-05-03T07:10:32.374Z,11.70
2018-05-03T07:15:06.331Z,9.50
2018-05-03T07:19:39.525Z,9.30
2018-05-03T07:24:12.716Z,9.15
2018-05-03T07:28:46.667Z,9.20
2018-05-03T07:33:19.858Z,7.97
2018-05-03T07:37:53.240Z,8.98
2018-05-03T07:42:26.261Z,8.00
2018-05-03T07:47:00.272Z,7.00
2018-05-03T07:51:34.227Z,6.60
2018-05-03T07:56:07.431Z,6.07
2018-05-03T08:00:40.650Z,6.25
2018-05-03T08:05:13.818Z,5.90
2018-05-03T08:09:47.770Z,5.28
2018-05-03T08:14:20.963Z,5.50
2018-05-03T08:18:54.934Z,5.03
2018-05-03T08:23:28.186Z,4.70
2018-05-03T08:28:01.426Z,5.35
2018-05-03T08:32:34.609Z,4.50
2018-05-03T08:37:08.579Z,4.53
2018-05-03T08:41:41.779Z,4.72
2018-05-03T08:46:15.036Z,5.20
2018-05-03T08:50:48.986Z,4.82
2018-05-03T08:55:22.173Z,3.85
2018-05-03T08:59:56.126Z,4.72
2018-05-03T09:04:29.315Z,3.90
2018-05-03T09:09:03.034Z,5.12
2018-05-03T09:13:37.048Z,4.43
2018-05-03T09:18:10.302Z,4.82
2018-05-03T09:22:43.487Z,4.32
2018-05-03T09:27:16.682Z,5.35
2018-05-03T09:31:49.841Z,4.78
2018-05-03T09:36:23.078Z,4.55
2018-05-03T09:40:57.028Z,4.60
2018-05-03T09:45:30.210Z,4.00
2018-05-03T09:50:04.194Z,4.55
2018-05-03T09:54:37.358Z,3.47
2018-05-03T09:59:10.565Z,2.97
2018-05-03T10:03:43.757Z,3.35
2018-05-03T10:08:17.744Z,3.95
2018-05-03T10:12:50.921Z,3.90
2018-05-03T10:17:24.105Z,3.90
2018-05-03T10:21:57.291Z,4.35
2018-05-03T10:26:31.250Z,5.03
2018-05-03T10:31:04.433Z,4.90
2018-05-03T10:35:38.458Z,5.20
2018-05-03T10:40:11.573Z,5.50
2018-05-03T10:44:44.755Z,5.30
2018-05-03T10:49:17.941Z,5.12
2018-05-03T10:53:51.126Z,5.45
2018-05-03T10:58:24.322Z,4.93
2018-05-03T11:02:57.485Z,4.90
2018-05-03T11:07:31.467Z,4.93
2018-05-03T11:12:04.654Z,5.65
2018-05-03T11:16:37.903Z,4.53
2018-05-03T11:21:11.350Z,4.95
2018-05-03T11:25:44.546Z,4.10
2018-05-03T11:30:18.495Z,4.70
2018-05-03T11:34:51.684Z,3.65
2018-05-03T11:39:25.703Z,4.03
2018-05-03T11:43:59.645Z,4.72
2018-05-03T11:48:32.830Z,4.22
2018-05-03T11:53:07.391Z,3.92
2018-05-03T11:57:40.613Z,3.78
2018-05-03T12:02:13.839Z,3.62
2018-05-03T12:06:47.026Z,6.53
2018-05-03T12:11:20.214Z,3.30
2018-05-03T12:15:53.414Z,3.08
2018-05-03T12:20:27.406Z,3.62
2018-05-03T12:25:00.597Z,3.90
2018-05-03T12:29:33.838Z,3.40
2018-05-03T12:34:07.029Z,4.25
2018-05-03T12:38:40.999Z,4.20
2018-05-03T12:43:14.186Z,4.60
2018-05-03T12:47:48.143Z,5.47
2018-05-03T12:52:21.333Z,5.60
2018-05-03T12:56:54.527Z,4.80
2018-05-03T13:01:28.478Z,3.90
2018-05-03T13:06:01.681Z,3.90
2018-05-03T13:10:34.949Z,4.45
2018-05-03T13:15:08.144Z,4.50
2018-05-03T13:19:49.066Z,4.80
2018-05-03T13:24:24.192Z,4.82
2018-05-03T13:28:57.454Z,5.40
2018-05-03T13:33:30.618Z,4.30
2018-05-03T13:38:04.547Z,3.95
2018-05-03T13:42:39.444Z,4.10
2018-05-03T13:47:12.627Z,3.87
2018-05-03T13:51:45.830Z,3.92
2018-05-03T13:56:19.001Z,3.78
2018-05-03T14:00:52.985Z,4.12
2018-05-03T14:05:26.198Z,4.40
2018-05-03T14:09:59.353Z,3.80
2018-05-03T14:14:32.542Z,3.65
2018-05-03T14:19:06.489Z,3.70
2018-05-03T14:23:39.672Z,3.17
2018-05-03T14:28:12.853Z,2.90
2018-05-03T14:32:46.038Z,3.05
2018-05-03T14:37:19.246Z,2.80
2018-05-03T14:41:52.482Z,2.72
2018-05-03T14:46:25.676Z,2.65
2018-05-03T14:50:58.859Z,2.55
2018-05-03T14:55:32.102Z,2.58
2018-05-03T15:00:05.319Z,2.80
2018-05-03T15:04:38.510Z,2.67
2018-05-03T15:09:11.690Z,2.78
2018-05-03T15:13:45.086Z,2.30
2018-05-03T15:18:18.307Z,2.58
2018-05-03T15:22:51.468Z,2.78
2018-05-03T15:27:25.418Z,2.30
2018-05-03T15:31:58.599Z,2.37
2018-05-03T15:36:32.559Z,2.30
2018-05-03T15:41:05.752Z,2.45
2018-05-03T15:45:39.098Z,2.80
2018-05-03T15:50:12.304Z,1.90
2018-05-03T15:54:45.543Z,2.15
2018-05-03T15:59:18.876Z,1.92
2018-05-03T16:03:52.826Z,2.15
2018-05-03T16:08:26.192Z,2.17
2018-05-03T16:13:00.453Z,2.42
2018-05-03T16:17:33.633Z,2.10
2018-05-03T16:22:07.673Z,2.30
2018-05-03T16:26:41.622Z,2.03
2018-05-03T16:31:15.634Z,2.20
2018-05-03T16:35:48.920Z,2.17
2018-05-03T16:40:22.966Z,2.17
2018-05-03T16:44:56.118Z,2.15
2018-05-03T16:49:29.302Z,2.72
2018-05-03T16:54:02.563Z,2.12
2018-05-03T16:58:36.513Z,2.65
2018-05-03T17:03:09.794Z,2.60
2018-05-03T17:07:43.842Z,2.30
2018-05-03T17:12:17.020Z,2.40
2018-05-03T17:16:50.456Z,2.22
2018-05-03T17:21:24.456Z,2.50
2018-05-03T17:25:57.592Z,2.45
2018-05-03T17:30:30.779Z,2.40
2018-05-03T17:35:04.734Z,3.20
2018-05-03T17:39:37.926Z,2.37
2018-05-03T17:44:11.120Z,2.37
2018-05-03T17:48:45.074Z,3.20
2018-05-03T17:53:18.256Z,2.60
2018-05-03T17:57:52.182Z,2.83
2018-05-03T18:02:26.147Z,3.20
2018-05-03T18:06:59.450Z,5.70
2018-05-03T18:11:32.616Z,3.25
2018-05-03T18:16:05.839Z,4.55
2018-05-03T18:20:39.063Z,3.20
2018-05-03T18:25:12.418Z,4.53
2018-05-03T18:29:45.612Z,3.50
2018-05-03T18:34:18.813Z,4.12
2018-05-03T18:38:52.175Z,5.35
2018-05-03T18:43:25.686Z,4.55
2018-05-03T18:47:58.886Z,4.55
2018-05-03T18:52:33.121Z,8.45
2018-05-03T18:57:07.075Z,4.57
2018-05-03T19:01:40.270Z,7.85
2018-05-03T19:06:13.494Z,4.93
2018-05-03T19:10:46.700Z,4.03
2018-05-03T19:15:19.877Z,4.40
2018-05-03T19:19:53.066Z,4.18
2018-05-03T19:24:27.021Z,4.68
2018-05-03T19:29:01.047Z,7.05
2018-05-03T19:33:34.248Z,15.82
2018-05-03T19:38:07.411Z,5.85
2018-05-03T19:42:40.597Z,4.68
2018-05-03T19:47:13.783Z,4.65
2018-05-03T19:51:47.054Z,4.18
2018-05-03T19:56:20.994Z,4.07
2018-05-03T20:00:54.274Z,4.15
2018-05-03T20:05:27.473Z,4.20
2018-05-03T20:10:01.482Z,3.92
2018-05-03T20:14:34.791Z,3.90
2018-05-03T20:19:08.135Z,4.50
2018-05-03T20:23:42.459Z,4.62
2018-05-03T20:28:16.141Z,4.03
2018-05-03T20:32:49.517Z,5.40
2018-05-03T20:37:22.644Z,4.73
2018-05-03T20:41:56.493Z,4.30
2018-05-03T20:46:29.758Z,5.63
2018-05-03T20:51:03.001Z,5.50
2018-05-03T20:55:37.641Z,5.30
2018-05-03T21:00:10.828Z,4.40
2018-05-03T21:04:44.205Z,7.37
2018-05-03T21:09:18.153Z,4.60
2018-05-03T21:13:51.341Z,9.17
2018-05-03T21:18:24.541Z,4.70
2018-05-03T21:22:58.536Z,5.17
2018-05-03T21:27:31.722Z,5.03
2018-05-03T21:32:04.963Z,4.23
2018-05-03T21:36:39.986Z,4.17
2018-05-03T21:41:13.145Z,6.10
2018-05-03T21:45:46.441Z,6.10
2018-05-03T21:50:21.344Z,7.40
2018-05-03T21:54:54.525Z,5.73
2018-05-03T21:59:28.578Z,4.43
2018-05-03T22:04:01.765Z,6.73
2018-05-03T22:08:36.073Z,5.63
2018-05-03T22:13:09.229Z,4.90
2018-05-03T22:17:42.413Z,6.17
2018-05-03T22:22:15.684Z,8.53
2018-05-03T22:26:48.873Z,6.37
2018-05-03T22:31:23.683Z,16.23
2018-05-03T22:35:57.024Z,17.50
2018-05-03T22:40:30.255Z,50.40
2018-05-03T22:45:03.446Z,16.23
2018-05-03T22:49:37.673Z,31.53
2018-05-03T22:54:12.333Z,35.90
2018-05-03T22:58:45.587Z,16.30
2018-05-03T23:03:18.907Z,20.23
2018-05-03T23:07:52.205Z,17.87
2018-05-03T23:12:26.193Z,27.77
2018-05-03T23:16:59.394Z,29.97
2018-05-03T23:21:32.666Z,10.53
2018-05-03T23:26:05.859Z,10.97
2018-05-03T23:30:39.050Z,14.43
2018-05-03T23:35:12.238Z,20.67
2018-05-03T23:39:45.433Z,17.13
2018-05-03T23:44:18.634Z,16.50
2018-05-03T23:48:51.941Z,15.90
2018-05-03T23:53:25.142Z,14.07
2018-05-03T23:58:02.742Z,15.27
